sensor_id;sensor_type;location;lat;lon;timestamp;P1;durP1;ratioP1;P2;durP2;ratioP2
58689;SDS011;44470;53.206;-6.106;2022-10-16T00:01:17;1.05;;;0.40;;
58689;SDS011;44470;53.206;-6.106;2022-10-16T00:03:45;2.92;;;0.60;;
58689;SDS011;44470;53.206;-6.106;2022-10-16T00:06:12;0.65;;;0.40;;
58689;SDS011;44470;53.206;-6.106;2022-10-16T00:08:38;0.30;;;0.30;;
58689;SDS011;44470;53.206;-6.106;2022-10-16T00:11:05;0.57;;;0.45;;
58689;SDS011;44470;53.206;-6.106;2022-10-16T00:13:33;0.88;;;0.40;;
58689;SDS011;44470;53.206;-6.106;2022-10-16T00:16:01;1.13;;;0.30;;
58689;SDS011;44470;53.206;-6.106;2022-10-16T00:18:27;0.73;;;0.73;;
58689;SDS011;44470;53.206;-6.106;2022-10-16T00:20:54;0.55;;;0.55;;
58689;SDS011;44470;53.206;-6.106;2022-10-16T00:23:20;0.47;;;0.47;;
58689;SDS011;44470;53.206;-6.106;2022-10-16T00:25:54;0.80;;;0.30;;
58689;SDS011;44470;53.206;-6.106;2022-10-16T00:28:21;0.55;;;0.50;;
58689;SDS011;44470;53.206;-6.106;2022-10-16T00:30:47;1.48;;;0.40;;
58689;SDS011;44470;53.206;-6.106;2022-10-16T00:33:12;1.00;;;0.22;;
58689;SDS011;44470;53.206;-6.106;2022-10-16T00:35:38;0.75;;;0.38;;
58689;SDS011;44470;53.206;-6.106;2022-10-16T00:38:03;0.60;;;0.50;;
58689;SDS011;44470;53.206;-6.106;2022-10-16T00:40:29;0.60;;;0.50;;
58689;SDS011;44470;53.206;-6.106;2022-10-16T00:42:54;1.02;;;0.30;;
58689;SDS011;44470;53.206;-6.106;2022-10-16T00:45:20;0.35;;;0.35;;
58689;SDS011;44470;53.206;-6.106;2022-10-16T00:47:45;0.50;;;0.32;;
58689;SDS011;44470;53.206;-6.106;2022-10-16T00:50:26;1.20;;;0.40;;
58689;SDS011;44470;53.206;-6.106;2022-10-16T00:52:56;1.77;;;0.28;;
58689;SDS011;44470;53.206;-6.106;2022-10-16T00:55:22;0.80;;;0.32;;
58689;SDS011;44470;53.206;-6.106;2022-10-16T00:57:49;0.50;;;0.50;;
58689;SDS011;44470;53.206;-6.106;2022-10-16T01:00:18;0.80;;;0.45;;
58689;SDS011;44470;53.206;-6.106;2022-10-16T01:02:53;0.35;;;0.22;;
58689;SDS011;44470;53.206;-6.106;2022-10-16T01:05:21;0.30;;;0.22;;
58689;SDS011;44470;53.206;-6.106;2022-10-16T01:10:59;0.45;;;0.28;;
58689;SDS011;44470;53.206;-6.106;2022-10-16T01:13:33;1.02;;;0.40;;
58689;SDS011;44470;53.206;-6.106;2022-10-16T01:16:18;1.80;;;0.60;;
58689;SDS011;44470;53.206;-6.106;2022-10-16T01:18:47;3.40;;;0.40;;
58689;SDS011;44470;53.206;-6.106;2022-10-16T01:21:36;1.40;;;0.30;;
58689;SDS011;44470;53.206;-6.106;2022-10-16T01:32:31;1.20;;;0.30;;
58689;SDS011;44470;53.206;-6.106;2022-10-16T01:40:29;0.85;;;0.25;;
58689;SDS011;44470;53.206;-6.106;2022-10-16T01:43:03;0.30;;;0.28;;
58689;SDS011;44470;53.206;-6.106;2022-10-16T01:45:32;0.25;;;0.25;;
58689;SDS011;44470;53.206;-6.106;2022-10-16T01:48:00;1.65;;;0.30;;
58689;SDS011;44470;53.206;-6.106;2022-10-16T01:50:31;0.17;;;0.17;;
58689;SDS011;44470;53.206;-6.106;2022-10-16T01:53:00;0.57;;;0.30;;
58689;SDS011;44470;53.206;-6.106;2022-10-16T01:55:28;0.25;;;0.17;;
58689;SDS011;44470;53.206;-6.106;2022-10-16T01:57:56;0.10;;;0.10;;
58689;SDS011;44470;53.206;-6.106;2022-10-16T02:00:24;1.25;;;0.30;;
58689;SDS011;44470;53.206;-6.106;2022-10-16T02:02:52;1.95;;;0.40;;
58689;SDS011;44470;53.206;-6.106;2022-10-16T02:05:25;0.75;;;0.30;;
58689;SDS011;44470;53.206;-6.106;2022-10-16T02:07:53;0.35;;;0.20;;
58689;SDS011;44470;53.206;-6.106;2022-10-16T02:10:20;0.30;;;0.13;;
58689;SDS011;44470;53.206;-6.106;2022-10-16T02:12:56;0.32;;;0.20;;
58689;SDS011;44470;53.206;-6.106;2022-10-16T02:15:27;1.50;;;0.30;;
58689;SDS011;44470;53.206;-6.106;2022-10-16T02:17:52;0.80;;;0.50;;
58689;SDS011;44470;53.206;-6.106;2022-10-16T02:20:19;0.52;;;0.35;;
58689;SDS011;44470;53.206;-6.106;2022-10-16T02:22:50;0.63;;;0.22;;
58689;SDS011;44470;53.206;-6.106;2022-10-16T02:25:18;0.43;;;0.43;;
58689;SDS011;44470;53.206;-6.106;2022-10-16T02:28:03;0.43;;;0.28;;
58689;SDS011;44470;53.206;-6.106;2022-10-16T02:30:39;0.20;;;0.20;;
58689;SDS011;44470;53.206;-6.106;2022-10-16T02:33:26;1.15;;;0.52;;
58689;SDS011;44470;53.206;-6.106;2022-10-16T02:35:54;0.45;;;0.20;;
58689;SDS011;44470;53.206;-6.106;2022-10-16T02:38:21;1.27;;;0.40;;
58689;SDS011;44470;53.206;-6.106;2022-10-16T02:40:48;0.63;;;0.45;;
58689;SDS011;44470;53.206;-6.106;2022-10-16T02:43:14;1.15;;;0.40;;
58689;SDS011;44470;53.206;-6.106;2022-10-16T02:45:40;0.70;;;0.43;;
58689;SDS011;44470;53.206;-6.106;2022-10-16T02:48:05;0.30;;;0.22;;
58689;SDS011;44470;53.206;-6.106;2022-10-16T02:50:31;0.30;;;0.30;;
58689;SDS011;44470;53.206;-6.106;2022-10-16T02:52:57;0.40;;;0.40;;
58689;SDS011;44470;53.206;-6.106;2022-10-16T02:55:22;0.85;;;0.17;;
58689;SDS011;44470;53.206;-6.106;2022-10-16T02:57:48;0.55;;;0.32;;
58689;SDS011;44470;53.206;-6.106;2022-10-16T03:00:14;0.38;;;0.22;;
58689;SDS011;44470;53.206;-6.106;2022-10-16T03:02:41;0.20;;;0.20;;
58689;SDS011;44470;53.206;-6.106;2022-10-16T03:05:06;0.65;;;0.30;;
58689;SDS011;44470;53.206;-6.106;2022-10-16T03:07:32;1.00;;;0.47;;
58689;SDS011;44470;53.206;-6.106;2022-10-16T03:09:58;0.35;;;0.30;;
58689;SDS011;44470;53.206;-6.106;2022-10-16T03:12:28;0.45;;;0.20;;
58689;SDS011;44470;53.206;-6.106;2022-10-16T03:14:57;1.40;;;0.40;;
58689;SDS011;44470;53.206;-6.106;2022-10-16T03:17:23;0.30;;;0.20;;
58689;SDS011;44470;53.206;-6.106;2022-10-16T03:19:49;0.40;;;0.30;;
58689;SDS011;44470;53.206;-6.106;2022-10-16T03:22:15;0.50;;;0.28;;
58689;SDS011;44470;53.206;-6.106;2022-10-16T03:24:40;0.65;;;0.40;;
58689;SDS011;44470;53.206;-6.106;2022-10-16T03:27:06;0.20;;;0.20;;
58689;SDS011;44470;53.206;-6.106;2022-10-16T03:29:31;0.73;;;0.40;;
58689;SDS011;44470;53.206;-6.106;2022-10-16T03:31:58;0.40;;;0.28;;
58689;SDS011;44470;53.206;-6.106;2022-10-16T03:34:25;1.20;;;0.40;;
58689;SDS011;44470;53.206;-6.106;2022-10-16T03:36:53;0.63;;;0.60;;
58689;SDS011;44470;53.206;-6.106;2022-10-16T03:39:18;0.20;;;0.20;;
58689;SDS011;44470;53.206;-6.106;2022-10-16T03:41:44;0.40;;;0.35;;
58689;SDS011;44470;53.206;-6.106;2022-10-16T03:44:11;0.32;;;0.20;;
58689;SDS011;44470;53.206;-6.106;2022-10-16T03:46:37;0.45;;;0.32;;
58689;SDS011;44470;53.206;-6.106;2022-10-16T03:49:03;1.05;;;0.30;;
58689;SDS011;44470;53.206;-6.106;2022-10-16T03:51:29;0.90;;;0.40;;
58689;SDS011;44470;53.206;-6.106;2022-10-16T03:53:54;0.50;;;0.40;;
58689;SDS011;44470;53.206;-6.106;2022-10-16T03:56:20;0.52;;;0.47;;
58689;SDS011;44470;53.206;-6.106;2022-10-16T03:58:45;3.22;;;0.40;;
58689;SDS011;44470;53.206;-6.106;2022-10-16T04:01:11;1.02;;;0.57;;
58689;SDS011;44470;53.206;-6.106;2022-10-16T04:03:36;1.23;;;0.45;;
58689;SDS011;44470;53.206;-6.106;2022-10-16T04:06:02;0.40;;;0.30;;
58689;SDS011;44470;53.206;-6.106;2022-10-16T04:08:27;0.70;;;0.15;;
58689;SDS011;44470;53.206;-6.106;2022-10-16T04:10:53;1.48;;;0.10;;
58689;SDS011;44470;53.206;-6.106;2022-10-16T04:13:18;0.63;;;0.60;;
58689;SDS011;44470;53.206;-6.106;2022-10-16T04:15:44;1.35;;;0.40;;
58689;SDS011;44470;53.206;-6.106;2022-10-16T04:18:10;1.33;;;0.38;;
58689;SDS011;44470;53.206;-6.106;2022-10-16T04:20:36;0.60;;;0.35;;
58689;SDS011;44470;53.206;-6.106;2022-10-16T04:23:01;0.93;;;0.38;;
58689;SDS011;44470;53.206;-6.106;2022-10-16T04:25:27;1.05;;;0.30;;
58689;SDS011;44470;53.206;-6.106;2022-10-16T04:27:53;0.68;;;0.28;;
58689;SDS011;44470;53.206;-6.106;2022-10-16T04:30:19;0.40;;;0.20;;
58689;SDS011;44470;53.206;-6.106;2022-10-16T04:32:49;1.30;;;0.45;;
58689;SDS011;44470;53.206;-6.106;2022-10-16T04:35:15;0.98;;;0.40;;
58689;SDS011;44470;53.206;-6.106;2022-10-16T04:37:41;2.45;;;0.50;;
58689;SDS011;44470;53.206;-6.106;2022-10-16T04:40:07;2.30;;;0.35;;
58689;SDS011;44470;53.206;-6.106;2022-10-16T04:42:32;1.02;;;0.30;;
58689;SDS011;44470;53.206;-6.106;2022-10-16T04:44:58;1.10;;;0.40;;
58689;SDS011;44470;53.206;-6.106;2022-10-16T04:47:23;0.70;;;0.30;;
58689;SDS011;44470;53.206;-6.106;2022-10-16T04:49:49;1.25;;;0.40;;
58689;SDS011;44470;53.206;-6.106;2022-10-16T04:52:14;0.17;;;0.17;;
58689;SDS011;44470;53.206;-6.106;2022-10-16T04:54:40;1.45;;;0.30;;
58689;SDS011;44470;53.206;-6.106;2022-10-16T04:57:05;1.35;;;0.30;;
58689;SDS011;44470;53.206;-6.106;2022-10-16T04:59:31;0.15;;;0.15;;
58689;SDS011;44470;53.206;-6.106;2022-10-16T05:01:56;2.10;;;0.38;;
58689;SDS011;44470;53.206;-6.106;2022-10-16T05:04:22;0.80;;;0.30;;
58689;SDS011;44470;53.206;-6.106;2022-10-16T05:06:48;1.23;;;0.40;;
58689;SDS011;44470;53.206;-6.106;2022-10-16T05:09:13;0.82;;;0.28;;
58689;SDS011;44470;53.206;-6.106;2022-10-16T05:11:39;0.93;;;0.20;;
58689;SDS011;44470;53.206;-6.106;2022-10-16T05:14:04;0.77;;;0.25;;
58689;SDS011;44470;53.206;-6.106;2022-10-16T05:16:30;0.52;;;0.40;;
58689;SDS011;44470;53.206;-6.106;2022-10-16T05:18:56;0.57;;;0.30;;
58689;SDS011;44470;53.206;-6.106;2022-10-16T05:21:21;0.45;;;0.45;;
58689;SDS011;44470;53.206;-6.106;2022-10-16T05:23:47;2.20;;;0.65;;
58689;SDS011;44470;53.206;-6.106;2022-10-16T05:26:13;0.30;;;0.30;;
58689;SDS011;44470;53.206;-6.106;2022-10-16T05:28:38;0.65;;;0.20;;
58689;SDS011;44470;53.206;-6.106;2022-10-16T05:31:07;0.30;;;0.30;;
58689;SDS011;44470;53.206;-6.106;2022-10-16T05:33:33;0.50;;;0.20;;
58689;SDS011;44470;53.206;-6.106;2022-10-16T05:36:05;1.65;;;0.40;;
58689;SDS011;44470;53.206;-6.106;2022-10-16T05:38:33;0.40;;;0.40;;
58689;SDS011;44470;53.206;-6.106;2022-10-16T05:40:59;0.50;;;0.25;;
58689;SDS011;44470;53.206;-6.106;2022-10-16T05:43:26;0.52;;;0.20;;
58689;SDS011;44470;53.206;-6.106;2022-10-16T05:45:55;0.25;;;0.25;;
58689;SDS011;44470;53.206;-6.106;2022-10-16T05:48:27;0.38;;;0.20;;
58689;SDS011;44470;53.206;-6.106;2022-10-16T05:50:56;0.20;;;0.20;;
58689;SDS011;44470;53.206;-6.106;2022-10-16T05:53:29;2.92;;;0.20;;
58689;SDS011;44470;53.206;-6.106;2022-10-16T05:55:56;0.22;;;0.20;;
58689;SDS011;44470;53.206;-6.106;2022-10-16T05:58:22;2.20;;;0.20;;
58689;SDS011;44470;53.206;-6.106;2022-10-16T06:01:00;0.60;;;0.40;;
58689;SDS011;44470;53.206;-6.106;2022-10-16T06:03:28;0.43;;;0.20;;
58689;SDS011;44470;53.206;-6.106;2022-10-16T06:05:53;0.20;;;0.15;;
58689;SDS011;44470;53.206;-6.106;2022-10-16T06:08:19;0.20;;;0.20;;
58689;SDS011;44470;53.206;-6.106;2022-10-16T06:10:47;0.95;;;0.20;;
58689;SDS011;44470;53.206;-6.106;2022-10-16T06:13:12;1.45;;;0.32;;
58689;SDS011;44470;53.206;-6.106;2022-10-16T06:15:39;0.52;;;0.20;;
58689;SDS011;44470;53.206;-6.106;2022-10-16T06:18:07;0.73;;;0.20;;
58689;SDS011;44470;53.206;-6.106;2022-10-16T06:20:34;0.57;;;0.20;;
58689;SDS011;44470;53.206;-6.106;2022-10-16T06:22:59;0.65;;;0.17;;
58689;SDS011;44470;53.206;-6.106;2022-10-16T06:25:25;0.13;;;0.10;;
58689;SDS011;44470;53.206;-6.106;2022-10-16T06:27:50;0.43;;;0.30;;
58689;SDS011;44470;53.206;-6.106;2022-10-16T06:30:16;1.00;;;0.30;;
58689;SDS011;44470;53.206;-6.106;2022-10-16T06:32:41;1.35;;;0.63;;
58689;SDS011;44470;53.206;-6.106;2022-10-16T06:35:07;0.30;;;0.20;;
58689;SDS011;44470;53.206;-6.106;2022-10-16T06:37:32;0.57;;;0.30;;
58689;SDS011;44470;53.206;-6.106;2022-10-16T06:39:58;0.80;;;0.28;;
58689;SDS011;44470;53.206;-6.106;2022-10-16T06:42:25;0.70;;;0.52;;
58689;SDS011;44470;53.206;-6.106;2022-10-16T06:44:50;0.20;;;0.17;;
58689;SDS011;44470;53.206;-6.106;2022-10-16T06:47:16;0.60;;;0.20;;
58689;SDS011;44470;53.206;-6.106;2022-10-16T06:49:41;0.40;;;0.35;;
58689;SDS011;44470;53.206;-6.106;2022-10-16T06:52:07;0.35;;;0.22;;
58689;SDS011;44470;53.206;-6.106;2022-10-16T06:54:32;0.95;;;0.20;;
58689;SDS011;44470;53.206;-6.106;2022-10-16T06:56:58;0.88;;;0.30;;
58689;SDS011;44470;53.206;-6.106;2022-10-16T06:59:25;0.40;;;0.20;;
58689;SDS011;44470;53.206;-6.106;2022-10-16T07:01:50;0.30;;;0.30;;
58689;SDS011;44470;53.206;-6.106;2022-10-16T07:04:16;0.43;;;0.20;;
58689;SDS011;44470;53.206;-6.106;2022-10-16T07:06:41;0.47;;;0.35;;
58689;SDS011;44470;53.206;-6.106;2022-10-16T07:09:08;1.40;;;0.47;;
58689;SDS011;44470;53.206;-6.106;2022-10-16T07:11:36;0.73;;;0.32;;
58689;SDS011;44470;53.206;-6.106;2022-10-16T07:14:02;1.27;;;0.15;;
58689;SDS011;44470;53.206;-6.106;2022-10-16T07:16:29;1.20;;;0.20;;
58689;SDS011;44470;53.206;-6.106;2022-10-16T07:18:57;0.32;;;0.20;;
58689;SDS011;44470;53.206;-6.106;2022-10-16T07:21:25;0.40;;;0.20;;
58689;SDS011;44470;53.206;-6.106;2022-10-16T07:23:57;0.32;;;0.28;;
58689;SDS011;44470;53.206;-6.106;2022-10-16T07:26:24;0.70;;;0.43;;
58689;SDS011;44470;53.206;-6.106;2022-10-16T07:28:51;0.82;;;0.20;;
58689;SDS011;44470;53.206;-6.106;2022-10-16T07:31:18;0.90;;;0.70;;
58689;SDS011;44470;53.206;-6.106;2022-10-16T07:33:45;0.95;;;0.43;;
58689;SDS011;44470;53.206;-6.106;2022-10-16T07:36:13;0.57;;;0.32;;
58689;SDS011;44470;53.206;-6.106;2022-10-16T07:38:39;0.85;;;0.22;;
58689;SDS011;44470;53.206;-6.106;2022-10-16T07:41:05;0.88;;;0.50;;
58689;SDS011;44470;53.206;-6.106;2022-10-16T07:43:32;1.48;;;0.40;;
58689;SDS011;44470;53.206;-6.106;2022-10-16T07:45:58;1.30;;;0.40;;
58689;SDS011;44470;53.206;-6.106;2022-10-16T07:48:26;0.40;;;0.30;;
58689;SDS011;44470;53.206;-6.106;2022-10-16T07:50:56;0.17;;;0.17;;
58689;SDS011;44470;53.206;-6.106;2022-10-16T07:53:25;1.13;;;0.40;;
58689;SDS011;44470;53.206;-6.106;2022-10-16T07:55:52;2.50;;;0.47;;
58689;SDS011;44470;53.206;-6.106;2022-10-16T08:00:47;0.68;;;0.30;;
58689;SDS011;44470;53.206;-6.106;2022-10-16T08:03:12;0.40;;;0.20;;
58689;SDS011;44470;53.206;-6.106;2022-10-16T08:05:38;0.40;;;0.15;;
58689;SDS011;44470;53.206;-6.106;2022-10-16T08:08:03;0.45;;;0.40;;
58689;SDS011;44470;53.206;-6.106;2022-10-16T08:10:29;0.17;;;0.13;;
58689;SDS011;44470;53.206;-6.106;2022-10-16T08:12:55;0.32;;;0.28;;
58689;SDS011;44470;53.206;-6.106;2022-10-16T08:15:20;1.15;;;0.50;;
58689;SDS011;44470;53.206;-6.106;2022-10-16T08:17:59;0.25;;;0.25;;
58689;SDS011;44470;53.206;-6.106;2022-10-16T08:22:52;0.80;;;0.22;;
58689;SDS011;44470;53.206;-6.106;2022-10-16T08:25:17;0.52;;;0.32;;
58689;SDS011;44470;53.206;-6.106;2022-10-16T08:27:43;0.95;;;0.50;;
58689;SDS011;44470;53.206;-6.106;2022-10-16T08:30:09;1.05;;;0.40;;
58689;SDS011;44470;53.206;-6.106;2022-10-16T08:32:36;0.55;;;0.32;;
58689;SDS011;44470;53.206;-6.106;2022-10-16T08:35:01;2.63;;;0.55;;
58689;SDS011;44470;53.206;-6.106;2022-10-16T08:37:30;7.13;;;1.17;;
58689;SDS011;44470;53.206;-6.106;2022-10-16T08:39:57;1.38;;;0.75;;
58689;SDS011;44470;53.206;-6.106;2022-10-16T08:47:39;9.13;;;2.75;;
58689;SDS011;44470;53.206;-6.106;2022-10-16T08:50:13;19.52;;;3.97;;
58689;SDS011;44470;53.206;-6.106;2022-10-16T08:52:45;13.77;;;2.67;;
58689;SDS011;44470;53.206;-6.106;2022-10-16T08:58:12;19.40;;;3.45;;
58689;SDS011;44470;53.206;-6.106;2022-10-16T09:00:40;20.65;;;3.30;;
58689;SDS011;44470;53.206;-6.106;2022-10-16T09:12:08;18.17;;;3.42;;
58689;SDS011;44470;53.206;-6.106;2022-10-16T09:22:47;10.85;;;2.55;;
58689;SDS011;44470;53.206;-6.106;2022-10-16T09:25:17;5.40;;;2.58;;
58689;SDS011;44470;53.206;-6.106;2022-10-16T09:27:46;11.00;;;2.75;;
58689;SDS011;44470;53.206;-6.106;2022-10-16T09:30:17;10.45;;;2.50;;
58689;SDS011;44470;53.206;-6.106;2022-10-16T09:32:45;8.70;;;2.30;;
58689;SDS011;44470;53.206;-6.106;2022-10-16T09:35:21;10.63;;;2.30;;
58689;SDS011;44470;53.206;-6.106;2022-10-16T09:37:56;11.35;;;2.45;;
58689;SDS011;44470;53.206;-6.106;2022-10-16T09:45:37;7.28;;;2.42;;
58689;SDS011;44470;53.206;-6.106;2022-10-16T09:48:10;7.50;;;2.25;;
58689;SDS011;44470;53.206;-6.106;2022-10-16T09:50:37;8.07;;;2.45;;
58689;SDS011;44470;53.206;-6.106;2022-10-16T09:53:04;10.52;;;2.42;;
58689;SDS011;44470;53.206;-6.106;2022-10-16T09:55:31;8.90;;;2.25;;
58689;SDS011;44470;53.206;-6.106;2022-10-16T09:57:56;9.55;;;2.67;;
58689;SDS011;44470;53.206;-6.106;2022-10-16T10:00:23;8.30;;;1.95;;
58689;SDS011;44470;53.206;-6.106;2022-10-16T10:02:49;8.45;;;1.98;;
58689;SDS011;44470;53.206;-6.106;2022-10-16T10:05:20;6.88;;;1.85;;
58689;SDS011;44470;53.206;-6.106;2022-10-16T10:07:53;7.15;;;2.15;;
58689;SDS011;44470;53.206;-6.106;2022-10-16T10:10:22;6.45;;;2.17;;
58689;SDS011;44470;53.206;-6.106;2022-10-16T10:12:50;6.73;;;2.07;;
58689;SDS011;44470;53.206;-6.106;2022-10-16T10:15:15;4.93;;;1.58;;
58689;SDS011;44470;53.206;-6.106;2022-10-16T10:17:48;5.30;;;1.60;;
58689;SDS011;44470;53.206;-6.106;2022-10-16T10:22:49;7.40;;;1.83;;
58689;SDS011;44470;53.206;-6.106;2022-10-16T10:25:16;5.07;;;1.90;;
58689;SDS011;44470;53.206;-6.106;2022-10-16T10:33:49;16.45;;;2.30;;
58689;SDS011;44470;53.206;-6.106;2022-10-16T10:36:12;9.85;;;1.95;;
58689;SDS011;44470;53.206;-6.106;2022-10-16T10:38:58;5.88;;;1.83;;
58689;SDS011;44470;53.206;-6.106;2022-10-16T11:08:36;3.13;;;1.60;;
58689;SDS011;44470;53.206;-6.106;2022-10-16T11:11:18;6.07;;;1.63;;
58689;SDS011;44470;53.206;-6.106;2022-10-16T11:16:26;5.90;;;1.40;;
58689;SDS011;44470;53.206;-6.106;2022-10-16T11:21:46;5.13;;;1.30;;
58689;SDS011;44470;53.206;-6.106;2022-10-16T11:24:27;6.65;;;1.58;;
58689;SDS011;44470;53.206;-6.106;2022-10-16T11:26:55;4.93;;;1.17;;
58689;SDS011;44470;53.206;-6.106;2022-10-16T11:29:27;1.35;;;1.02;;
58689;SDS011;44470;53.206;-6.106;2022-10-16T11:32:01;6.75;;;1.63;;
58689;SDS011;44470;53.206;-6.106;2022-10-16T11:34:43;4.47;;;1.30;;
58689;SDS011;44470;53.206;-6.106;2022-10-16T11:37:23;2.92;;;1.20;;
58689;SDS011;44470;53.206;-6.106;2022-10-16T11:40:16;4.53;;;1.33;;
58689;SDS011;44470;53.206;-6.106;2022-10-16T11:42:55;5.22;;;1.70;;
58689;SDS011;44470;53.206;-6.106;2022-10-16T11:45:29;3.17;;;1.20;;
58689;SDS011;44470;53.206;-6.106;2022-10-16T11:48:20;2.97;;;1.13;;
58689;SDS011;44470;53.206;-6.106;2022-10-16T11:50:58;4.32;;;1.40;;
58689;SDS011;44470;53.206;-6.106;2022-10-16T11:56:08;1.98;;;1.15;;
58689;SDS011;44470;53.206;-6.106;2022-10-16T11:58:50;1.48;;;0.98;;
58689;SDS011;44470;53.206;-6.106;2022-10-16T12:01:22;3.05;;;1.35;;
58689;SDS011;44470;53.206;-6.106;2022-10-16T12:09:19;2.90;;;1.10;;
58689;SDS011;44470;53.206;-6.106;2022-10-16T12:11:49;2.28;;;1.30;;
58689;SDS011;44470;53.206;-6.106;2022-10-16T12:16:56;1.98;;;1.23;;
58689;SDS011;44470;53.206;-6.106;2022-10-16T12:19:24;3.65;;;1.55;;
58689;SDS011;44470;53.206;-6.106;2022-10-16T12:21:52;2.00;;;1.20;;
58689;SDS011;44470;53.206;-6.106;2022-10-16T12:24:22;2.45;;;1.00;;
58689;SDS011;44470;53.206;-6.106;2022-10-16T12:27:00;2.20;;;1.02;;
58689;SDS011;44470;53.206;-6.106;2022-10-16T12:32:00;1.85;;;1.02;;
58689;SDS011;44470;53.206;-6.106;2022-10-16T12:34:39;0.98;;;0.90;;
58689;SDS011;44470;53.206;-6.106;2022-10-16T12:37:12;2.40;;;0.98;;
58689;SDS011;44470;53.206;-6.106;2022-10-16T12:39:44;0.88;;;0.80;;
58689;SDS011;44470;53.206;-6.106;2022-10-16T12:44:52;1.20;;;0.80;;
58689;SDS011;44470;53.206;-6.106;2022-10-16T12:47:23;3.10;;;1.40;;
58689;SDS011;44470;53.206;-6.106;2022-10-16T12:50:02;2.63;;;0.93;;
58689;SDS011;44470;53.206;-6.106;2022-10-16T12:52:36;3.08;;;1.08;;
58689;SDS011;44470;53.206;-6.106;2022-10-16T12:55:03;1.30;;;1.02;;
58689;SDS011;44470;53.206;-6.106;2022-10-16T13:05:58;2.30;;;1.38;;
58689;SDS011;44470;53.206;-6.106;2022-10-16T13:08:54;4.38;;;1.40;;
58689;SDS011;44470;53.206;-6.106;2022-10-16T13:16:54;2.40;;;1.00;;
58689;SDS011;44470;53.206;-6.106;2022-10-16T13:19:40;1.33;;;1.15;;
58689;SDS011;44470;53.206;-6.106;2022-10-16T13:22:14;2.40;;;1.30;;
58689;SDS011;44470;53.206;-6.106;2022-10-16T13:25:02;3.50;;;1.48;;
58689;SDS011;44470;53.206;-6.106;2022-10-16T13:27:35;1.85;;;1.15;;
58689;SDS011;44470;53.206;-6.106;2022-10-16T13:30:18;2.78;;;1.30;;
58689;SDS011;44470;53.206;-6.106;2022-10-16T13:32:47;1.48;;;1.38;;
58689;SDS011;44470;53.206;-6.106;2022-10-16T13:35:25;3.58;;;1.25;;
58689;SDS011;44470;53.206;-6.106;2022-10-16T13:38:05;3.17;;;1.17;;
58689;SDS011;44470;53.206;-6.106;2022-10-16T13:40:47;3.42;;;1.08;;
58689;SDS011;44470;53.206;-6.106;2022-10-16T13:43:45;4.10;;;1.15;;
58689;SDS011;44470;53.206;-6.106;2022-10-16T13:46:16;2.42;;;1.27;;
58689;SDS011;44470;53.206;-6.106;2022-10-16T13:48:44;1.50;;;1.17;;
58689;SDS011;44470;53.206;-6.106;2022-10-16T13:51:16;2.17;;;1.10;;
58689;SDS011;44470;53.206;-6.106;2022-10-16T13:53:43;5.47;;;1.27;;
58689;SDS011;44470;53.206;-6.106;2022-10-16T13:56:14;3.08;;;1.20;;
58689;SDS011;44470;53.206;-6.106;2022-10-16T13:58:42;3.10;;;1.30;;
58689;SDS011;44470;53.206;-6.106;2022-10-16T14:01:28;6.13;;;1.60;;
58689;SDS011;44470;53.206;-6.106;2022-10-16T14:04:00;3.63;;;1.10;;
58689;SDS011;44470;53.206;-6.106;2022-10-16T14:06:28;6.32;;;1.20;;
58689;SDS011;44470;53.206;-6.106;2022-10-16T14:09:02;3.95;;;1.23;;
58689;SDS011;44470;53.206;-6.106;2022-10-16T14:11:31;2.45;;;1.40;;
58689;SDS011;44470;53.206;-6.106;2022-10-16T14:16:45;7.05;;;1.70;;
58689;SDS011;44470;53.206;-6.106;2022-10-16T14:19:13;4.75;;;1.30;;
58689;SDS011;44470;53.206;-6.106;2022-10-16T14:21:43;3.75;;;1.58;;
58689;SDS011;44470;53.206;-6.106;2022-10-16T14:24:12;2.45;;;1.30;;
58689;SDS011;44470;53.206;-6.106;2022-10-16T14:26:47;5.07;;;1.50;;
58689;SDS011;44470;53.206;-6.106;2022-10-16T14:29:15;2.80;;;1.45;;
58689;SDS011;44470;53.206;-6.106;2022-10-16T14:31:53;8.02;;;2.17;;
58689;SDS011;44470;53.206;-6.106;2022-10-16T14:36:53;8.40;;;1.48;;
58689;SDS011;44470;53.206;-6.106;2022-10-16T14:39:20;5.20;;;1.67;;
58689;SDS011;44470;53.206;-6.106;2022-10-16T14:41:48;3.28;;;1.17;;
58689;SDS011;44470;53.206;-6.106;2022-10-16T14:44:16;6.93;;;1.13;;
58689;SDS011;44470;53.206;-6.106;2022-10-16T14:46:43;2.20;;;1.25;;
58689;SDS011;44470;53.206;-6.106;2022-10-16T14:51:36;2.72;;;1.27;;
58689;SDS011;44470;53.206;-6.106;2022-10-16T14:54:03;2.58;;;1.30;;
58689;SDS011;44470;53.206;-6.106;2022-10-16T14:56:30;3.10;;;1.25;;
58689;SDS011;44470;53.206;-6.106;2022-10-16T14:58:58;2.92;;;1.30;;
58689;SDS011;44470;53.206;-6.106;2022-10-16T15:01:23;2.70;;;0.98;;
58689;SDS011;44470;53.206;-6.106;2022-10-16T15:03:49;3.50;;;1.30;;
58689;SDS011;44470;53.206;-6.106;2022-10-16T15:06:17;1.77;;;1.02;;
58689;SDS011;44470;53.206;-6.106;2022-10-16T15:08:43;5.78;;;1.55;;
58689;SDS011;44470;53.206;-6.106;2022-10-16T15:11:12;3.85;;;1.17;;
58689;SDS011;44470;53.206;-6.106;2022-10-16T15:13:43;2.80;;;1.05;;
58689;SDS011;44470;53.206;-6.106;2022-10-16T15:16:12;1.92;;;1.25;;
58689;SDS011;44470;53.206;-6.106;2022-10-16T15:18:41;1.52;;;0.85;;
58689;SDS011;44470;53.206;-6.106;2022-10-16T15:21:07;1.65;;;1.05;;
58689;SDS011;44470;53.206;-6.106;2022-10-16T15:23:42;3.03;;;1.27;;
58689;SDS011;44470;53.206;-6.106;2022-10-16T15:26:08;3.38;;;1.10;;
58689;SDS011;44470;53.206;-6.106;2022-10-16T15:28:33;2.25;;;0.98;;
58689;SDS011;44470;53.206;-6.106;2022-10-16T15:31:00;2.75;;;1.15;;
58689;SDS011;44470;53.206;-6.106;2022-10-16T15:33:26;1.88;;;0.70;;
58689;SDS011;44470;53.206;-6.106;2022-10-16T15:35:55;2.33;;;1.05;;
58689;SDS011;44470;53.206;-6.106;2022-10-16T15:38:21;2.90;;;1.40;;
58689;SDS011;44470;53.206;-6.106;2022-10-16T15:40:48;2.15;;;0.95;;
58689;SDS011;44470;53.206;-6.106;2022-10-16T15:43:14;3.30;;;1.05;;
58689;SDS011;44470;53.206;-6.106;2022-10-16T15:45:40;1.17;;;1.08;;
58689;SDS011;44470;53.206;-6.106;2022-10-16T15:48:06;1.60;;;0.88;;
58689;SDS011;44470;53.206;-6.106;2022-10-16T15:50:35;1.10;;;0.73;;
58689;SDS011;44470;53.206;-6.106;2022-10-16T15:53:03;3.70;;;1.08;;
58689;SDS011;44470;53.206;-6.106;2022-10-16T15:55:28;1.20;;;1.10;;
58689;SDS011;44470;53.206;-6.106;2022-10-16T15:57:54;2.88;;;1.27;;
58689;SDS011;44470;53.206;-6.106;2022-10-16T16:00:20;3.00;;;1.20;;
58689;SDS011;44470;53.206;-6.106;2022-10-16T16:02:50;1.17;;;1.02;;
58689;SDS011;44470;53.206;-6.106;2022-10-16T16:05:17;2.33;;;1.27;;
58689;SDS011;44470;53.206;-6.106;2022-10-16T16:07:43;2.97;;;1.25;;
58689;SDS011;44470;53.206;-6.106;2022-10-16T16:10:09;2.95;;;1.23;;
58689;SDS011;44470;53.206;-6.106;2022-10-16T16:12:36;3.35;;;1.55;;
58689;SDS011;44470;53.206;-6.106;2022-10-16T16:15:03;2.35;;;1.10;;
58689;SDS011;44470;53.206;-6.106;2022-10-16T16:17:30;2.30;;;1.27;;
58689;SDS011;44470;53.206;-6.106;2022-10-16T16:19:56;4.55;;;1.70;;
58689;SDS011;44470;53.206;-6.106;2022-10-16T16:22:21;1.90;;;1.42;;
58689;SDS011;44470;53.206;-6.106;2022-10-16T16:24:47;3.25;;;1.42;;
58689;SDS011;44470;53.206;-6.106;2022-10-16T16:27:12;2.50;;;1.40;;
58689;SDS011;44470;53.206;-6.106;2022-10-16T16:29:38;3.40;;;1.58;;
58689;SDS011;44470;53.206;-6.106;2022-10-16T16:32:04;3.65;;;1.65;;
58689;SDS011;44470;53.206;-6.106;2022-10-16T16:34:30;2.92;;;1.67;;
58689;SDS011;44470;53.206;-6.106;2022-10-16T16:36:55;1.35;;;1.25;;
58689;SDS011;44470;53.206;-6.106;2022-10-16T16:39:21;2.38;;;1.65;;
58689;SDS011;44470;53.206;-6.106;2022-10-16T16:41:47;3.50;;;1.80;;
58689;SDS011;44470;53.206;-6.106;2022-10-16T16:44:14;1.67;;;1.45;;
58689;SDS011;44470;53.206;-6.106;2022-10-16T16:46:41;5.32;;;1.80;;
58689;SDS011;44470;53.206;-6.106;2022-10-16T16:49:11;2.05;;;1.88;;
58689;SDS011;44470;53.206;-6.106;2022-10-16T16:51:38;3.67;;;1.73;;
58689;SDS011;44470;53.206;-6.106;2022-10-16T16:54:04;2.35;;;1.90;;